Aérodrome :
LOGIN :

S'inscrire | Disclaimer

   EN    FR    IT 

 










Légende :    VFR   VFR Marginal   IFR   IFR Intensif   IFR Très Intensif
Visi : 
Plafond : 
>= 8 km
>= 3000ft
5 à 8 km
1000 à 3000 ft
1500m à 5 km
500 à 1000 ft
800 à 1500m
200 à 500 ft
< 800m
< 200 ft
Symboles :   Orages  Brouillard  Fortes neiges  Fortes précipitations  Vent > 20 kt
SIGMETs :   Divers  Orages  Givrage  Turbulence  Onde Orograph.  Cendres Volcan.






- Altitude de l'aérodrome : 121 ft
- Code IATA : HUY


EGNJ - Humberside

DERNIER METAR :
  • 250650Z 21013KT 9999 FEW019 SCT024 03/01 Q0997

METARs EXPIRÉS :
  • 250620Z 23011KT 9999 SCT019 BKN024 04/02 Q0997
  • 250550Z 22011KT 9999 SCT017 BKN021 04/02 Q0998
  • 250520Z AUTO 24014KT 9999 BKN018/// BKN023/// OVC028/// 05/02 Q0998
  • 250450Z AUTO 25016KT 9999 FEW014/// BKN018/// 05/02 Q0998 RERA
  • 250420Z AUTO 22008KT 9999 BKN021/// OVC027/// 04/01 Q0998

TAF TAF EGNJ
Valide du 25 à 06h jusqu'au 25 à 15h UTC


250457Z 2506/2515 24012KT 9999 SCT020
TEMPO 2507/2515 7000 SHRA BKN014
PROB30
TEMPO 2509/2515 27015G25KT 2000 SHRASN +SHGS BKN006 BKN015CB
ATIS : +44 1652 682 020



MET'MAP, la Météo Aéronautique d'un coup d'oeil ! - Copyright ORBIFLY Décembre 2007 - Disclaimer

ORBIFLY MET'MAP TEAM :

Programmation & Développement : Alexandra Zaïnal
Sur une idée originale de : Baudouin d'Aumeries
Assistance à la programmation : Marc-Olivier Méhu
Soutien technique & logistique : Manuel Goepfert

Contact : metmap@orbifly.com




SOURCES & CREDITS :

   NOAA